createdAt,value
2023-11-24T00:00:26.855Z,997.27
2023-11-24T00:01:29.861Z,997.26
2023-11-24T00:02:34.047Z,997.32
2023-11-24T00:03:38.410Z,997.36
2023-11-24T00:04:42.648Z,997.39
2023-11-24T00:05:47.002Z,997.39
2023-11-24T00:06:51.161Z,997.35
2023-11-24T00:07:55.396Z,997.36
2023-11-24T00:08:59.717Z,997.32
2023-11-24T00:10:04.008Z,997.30
2023-11-24T00:11:08.274Z,997.27
2023-11-24T00:12:12.522Z,997.23
2023-11-24T00:13:16.711Z,997.24
2023-11-24T00:14:20.924Z,997.24
2023-11-24T00:15:25.264Z,997.24
2023-11-24T00:16:29.693Z,997.23
2023-11-24T00:17:33.744Z,997.29
2023-11-24T00:18:38.066Z,997.27
2023-11-24T00:19:42.212Z,997.27
2023-11-24T00:20:46.492Z,997.29
2023-11-24T00:21:50.811Z,997.29
2023-11-24T00:22:54.968Z,997.26
2023-11-24T00:23:59.311Z,997.29
2023-11-24T00:25:03.562Z,997.26
2023-11-24T00:26:07.706Z,997.21
2023-11-24T00:27:12.000Z,997.19
2023-11-24T00:28:16.306Z,997.22
2023-11-24T00:29:20.575Z,997.26
2023-11-24T00:30:24.779Z,997.27
2023-11-24T00:31:29.045Z,997.24
2023-11-24T00:32:33.368Z,997.25
2023-11-24T00:33:37.833Z,997.17
2023-11-24T00:34:42.064Z,997.11
2023-11-24T00:35:46.300Z,997.07
2023-11-24T00:36:50.604Z,997.12
2023-11-24T00:37:54.734Z,997.18
2023-11-24T00:38:59.205Z,997.17
2023-11-24T00:40:03.370Z,997.09
2023-11-24T00:41:07.700Z,997.11
2023-11-24T00:42:12.008Z,997.16
2023-11-24T00:43:16.343Z,997.19
2023-11-24T00:44:20.501Z,997.20
2023-11-24T00:45:24.898Z,997.13
2023-11-24T00:46:35.226Z,997.13
2023-11-24T00:47:38.246Z,997.09
2023-11-24T00:48:42.359Z,997.00
2023-11-24T00:49:46.600Z,997.07
2023-11-24T00:50:50.986Z,997.07
2023-11-24T00:51:55.394Z,997.11
2023-11-24T00:52:59.540Z,997.14
2023-11-24T00:54:03.839Z,997.12
2023-11-24T00:55:08.183Z,997.11
2023-11-24T00:56:12.354Z,997.15
2023-11-24T00:57:19.472Z,997.15
2023-11-24T00:58:22.929Z,997.15
2023-11-24T00:59:27.088Z,997.22
2023-11-24T01:00:31.429Z,997.18
2023-11-24T01:01:35.670Z,997.13
2023-11-24T01:02:39.959Z,997.10
2023-11-24T01:03:44.206Z,997.12
2023-11-24T01:04:48.449Z,997.13
2023-11-24T01:05:52.764Z,997.15
2023-11-24T01:06:56.968Z,997.18
2023-11-24T01:08:01.244Z,997.19
2023-11-24T01:09:05.591Z,997.21
2023-11-24T01:10:09.894Z,997.16
2023-11-24T01:11:14.034Z,997.11
2023-11-24T01:12:18.250Z,997.16
2023-11-24T01:13:22.465Z,997.17
2023-11-24T01:14:28.617Z,997.20
2023-11-24T01:15:31.124Z,997.21
2023-11-24T01:16:35.266Z,997.18
2023-11-24T01:17:39.669Z,997.12
2023-11-24T01:18:43.857Z,997.10
2023-11-24T01:19:48.136Z,997.10
2023-11-24T01:20:52.372Z,997.08
2023-11-24T01:21:56.571Z,997.05
2023-11-24T01:23:00.728Z,997.09
2023-11-24T01:24:05.043Z,997.15
2023-11-24T01:25:09.323Z,997.22
2023-11-24T01:26:13.506Z,997.25
2023-11-24T01:27:17.681Z,997.28
2023-11-24T01:28:22.004Z,997.27
2023-11-24T01:29:26.270Z,997.22
2023-11-24T01:30:30.699Z,997.17
2023-11-24T01:31:40.808Z,997.18
2023-11-24T01:32:43.757Z,997.15
2023-11-24T01:33:47.950Z,997.16
2023-11-24T01:34:52.119Z,997.12
2023-11-24T01:35:56.427Z,997.14
2023-11-24T01:37:00.668Z,997.20
2023-11-24T01:38:04.972Z,997.12
2023-11-24T01:39:09.161Z,997.10
2023-11-24T01:40:13.440Z,997.05
2023-11-24T01:41:17.777Z,997.02
2023-11-24T01:42:21.977Z,997.01
2023-11-24T01:43:26.015Z,997.02
2023-11-24T01:44:30.361Z,997.00
2023-11-24T01:45:34.693Z,996.96
2023-11-24T01:46:39.000Z,996.97
2023-11-24T01:47:43.140Z,997.00
2023-11-24T01:48:47.386Z,996.93
2023-11-24T01:49:51.682Z,996.95
2023-11-24T01:50:55.898Z,996.90
2023-11-24T01:52:00.083Z,996.95
2023-11-24T01:53:04.272Z,996.86
2023-11-24T01:54:08.534Z,996.87
2023-11-24T01:55:12.697Z,996.88
2023-11-24T01:56:31.023Z,996.90
2023-11-24T01:57:34.360Z,996.92
2023-11-24T01:58:38.421Z,996.89
2023-11-24T01:59:42.783Z,996.89
2023-11-24T02:00:47.099Z,996.77
2023-11-24T02:01:51.134Z,996.79
2023-11-24T02:02:55.572Z,996.67
2023-11-24T02:04:02.817Z,996.69
2023-11-24T02:05:05.989Z,996.63
2023-11-24T02:06:10.377Z,996.62
2023-11-24T02:07:14.572Z,996.58
2023-11-24T02:08:18.817Z,996.59
2023-11-24T02:09:23.257Z,996.57
2023-11-24T02:10:27.449Z,996.60
2023-11-24T02:11:31.680Z,996.55
2023-11-24T02:12:50.091Z,996.59
2023-11-24T02:13:53.203Z,996.57
2023-11-24T02:14:57.283Z,996.51
2023-11-24T02:16:01.667Z,996.54
2023-11-24T02:17:05.718Z,996.54
2023-11-24T02:18:10.165Z,996.56
2023-11-24T02:19:14.237Z,996.60
2023-11-24T02:20:18.537Z,996.66
2023-11-24T02:21:23.700Z,996.64
2023-11-24T02:22:27.511Z,996.63
2023-11-24T02:23:31.729Z,996.67
2023-11-24T02:24:36.000Z,996.67
2023-11-24T02:25:40.224Z,996.72
2023-11-24T02:26:44.540Z,996.67
2023-11-24T02:27:48.817Z,996.68
2023-11-24T02:28:53.028Z,996.62
2023-11-24T02:29:57.224Z,996.60
2023-11-24T02:31:01.668Z,996.60
2023-11-24T02:32:05.910Z,996.54
2023-11-24T02:33:10.219Z,996.50
2023-11-24T02:34:14.519Z,996.47
2023-11-24T02:35:18.644Z,996.46
2023-11-24T02:36:22.993Z,996.48
2023-11-24T02:37:27.183Z,996.50
2023-11-24T02:38:31.313Z,996.52
2023-11-24T02:39:35.590Z,996.54
2023-11-24T02:40:39.894Z,996.55
2023-11-24T02:41:44.142Z,996.56
2023-11-24T02:42:48.425Z,996.58
2023-11-24T02:43:52.548Z,996.53
2023-11-24T02:44:56.990Z,996.44
2023-11-24T02:46:01.338Z,996.44
2023-11-24T02:47:05.514Z,996.44
2023-11-24T02:48:09.859Z,996.46
2023-11-24T02:49:13.961Z,996.50
2023-11-24T02:50:18.308Z,996.45
2023-11-24T02:51:22.580Z,996.45
2023-11-24T02:52:26.830Z,996.45
2023-11-24T02:53:31.156Z,996.55
2023-11-24T02:54:35.405Z,996.49
2023-11-24T02:55:39.530Z,996.50
2023-11-24T02:56:43.850Z,996.50
2023-11-24T02:57:48.265Z,996.52
2023-11-24T02:58:53.256Z,996.49
2023-11-24T02:59:57.299Z,996.47
2023-11-24T03:01:01.602Z,996.45
2023-11-24T03:02:05.922Z,996.36
2023-11-24T03:03:09.942Z,996.36
2023-11-24T03:04:14.431Z,996.35
2023-11-24T03:05:18.604Z,996.35
2023-11-24T03:06:22.860Z,996.36
2023-11-24T03:07:27.148Z,996.33
2023-11-24T03:08:31.407Z,996.31
2023-11-24T03:09:35.906Z,996.34
2023-11-24T03:10:43.127Z,996.42
2023-11-24T03:11:46.436Z,996.40
2023-11-24T03:12:50.642Z,996.41
2023-11-24T03:13:54.904Z,996.35
2023-11-24T03:14:59.289Z,996.38
2023-11-24T03:16:03.633Z,996.33
2023-11-24T03:17:07.824Z,996.27
2023-11-24T03:18:12.189Z,996.26
2023-11-24T03:19:16.263Z,996.26
2023-11-24T03:20:20.489Z,996.26
2023-11-24T03:21:24.863Z,996.24
2023-11-24T03:22:29.070Z,996.24
2023-11-24T03:23:33.317Z,996.33
2023-11-24T03:24:37.644Z,996.31
2023-11-24T03:25:41.943Z,996.35
2023-11-24T03:26:46.290Z,996.34
2023-11-24T03:27:50.464Z,996.34
2023-11-24T03:28:54.727Z,996.33
2023-11-24T03:29:59.060Z,996.32
2023-11-24T03:31:03.257Z,996.29
2023-11-24T03:32:07.420Z,996.27
2023-11-24T03:33:11.762Z,996.31
2023-11-24T03:34:16.214Z,996.29
2023-11-24T03:35:20.257Z,996.29
2023-11-24T03:36:25.505Z,996.32
2023-11-24T03:37:29.265Z,996.30
2023-11-24T03:38:33.559Z,996.27
2023-11-24T03:39:37.865Z,996.28
2023-11-24T03:40:41.961Z,996.24
2023-11-24T03:41:46.093Z,996.31
2023-11-24T03:42:50.467Z,996.30
2023-11-24T03:43:54.651Z,996.32
2023-11-24T03:44:58.790Z,996.36
2023-11-24T03:46:03.092Z,996.38
2023-11-24T03:47:07.239Z,996.42
2023-11-24T03:48:11.445Z,996.39
2023-11-24T03:49:15.804Z,996.46
2023-11-24T03:50:20.044Z,996.46
2023-11-24T03:51:24.222Z,996.40
2023-11-24T03:52:28.454Z,996.46
2023-11-24T03:53:32.793Z,996.42
2023-11-24T03:54:36.982Z,996.35
2023-11-24T03:55:41.258Z,996.39
2023-11-24T03:56:45.514Z,996.31
2023-11-24T03:57:50.005Z,996.31
2023-11-24T03:58:54.110Z,996.39
2023-11-24T03:59:58.325Z,996.30
2023-11-24T04:01:02.862Z,996.34
2023-11-24T04:02:07.006Z,996.42
2023-11-24T04:03:11.252Z,996.31
2023-11-24T04:04:15.566Z,996.36
2023-11-24T04:05:19.581Z,996.37
2023-11-24T04:06:23.955Z,996.34
2023-11-24T04:07:28.119Z,996.33
2023-11-24T04:08:32.514Z,996.32
2023-11-24T04:09:36.683Z,996.34
2023-11-24T04:10:41.074Z,996.34
2023-11-24T04:11:45.290Z,996.35
2023-11-24T04:12:49.521Z,996.32
2023-11-24T04:13:53.765Z,996.35
2023-11-24T04:14:58.129Z,996.38
2023-11-24T04:16:02.299Z,996.45
2023-11-24T04:17:06.640Z,996.42
2023-11-24T04:18:10.880Z,996.49
2023-11-24T04:19:15.018Z,996.50
2023-11-24T04:20:20.228Z,996.50
2023-11-24T04:21:24.219Z,996.52
2023-11-24T04:22:28.293Z,996.50
2023-11-24T04:23:32.495Z,996.50
2023-11-24T04:24:36.808Z,996.40
2023-11-24T04:25:40.899Z,996.39
2023-11-24T04:26:45.229Z,996.36
2023-11-24T04:27:49.437Z,996.39
2023-11-24T04:28:53.755Z,996.43
2023-11-24T04:29:57.971Z,996.38
2023-11-24T04:31:02.200Z,996.41
2023-11-24T04:32:06.489Z,996.40
2023-11-24T04:33:10.651Z,996.41
2023-11-24T04:34:15.063Z,996.39
2023-11-24T04:35:19.271Z,996.41
2023-11-24T04:36:26.529Z,996.41
2023-11-24T04:37:29.869Z,996.41
2023-11-24T04:38:34.075Z,996.43
2023-11-24T04:39:38.363Z,996.44
2023-11-24T04:40:42.580Z,996.38
2023-11-24T04:41:48.535Z,996.35
2023-11-24T04:42:51.243Z,996.41
2023-11-24T04:43:55.399Z,996.38
2023-11-24T04:44:59.748Z,996.42
2023-11-24T04:46:04.156Z,996.41
2023-11-24T04:47:08.266Z,996.43
2023-11-24T04:48:12.628Z,996.43
2023-11-24T04:49:16.963Z,996.47
2023-11-24T04:50:21.234Z,996.48
2023-11-24T04:51:25.430Z,996.46
2023-11-24T04:52:29.490Z,996.46
2023-11-24T04:53:33.919Z,996.50
2023-11-24T04:54:38.159Z,996.47
2023-11-24T04:55:42.394Z,996.47
2023-11-24T04:56:46.554Z,996.49
2023-11-24T04:57:50.980Z,996.40
2023-11-24T04:58:55.118Z,996.42
2023-11-24T04:59:59.291Z,996.41
2023-11-24T05:01:03.772Z,996.38
2023-11-24T05:02:07.938Z,996.39
2023-11-24T05:03:12.173Z,996.36
2023-11-24T05:04:16.538Z,996.39
2023-11-24T05:05:20.576Z,996.42
2023-11-24T05:06:24.911Z,996.41
2023-11-24T05:07:28.999Z,996.40
2023-11-24T05:08:33.422Z,996.35
2023-11-24T05:09:37.635Z,996.39
2023-11-24T05:10:41.856Z,996.33
2023-11-24T05:11:46.100Z,996.30
2023-11-24T05:12:50.368Z,996.27
2023-11-24T05:13:54.465Z,996.25
2023-11-24T05:14:58.717Z,996.24
2023-11-24T05:16:03.202Z,996.23
2023-11-24T05:17:07.417Z,996.25
2023-11-24T05:18:11.511Z,996.24
2023-11-24T05:19:15.654Z,996.26
2023-11-24T05:20:19.967Z,996.24
2023-11-24T05:21:24.308Z,996.22
2023-11-24T05:22:28.551Z,996.20
2023-11-24T05:23:32.834Z,996.21
2023-11-24T05:24:37.094Z,996.21
2023-11-24T05:25:41.174Z,996.22
2023-11-24T05:26:45.646Z,996.19
2023-11-24T05:27:49.783Z,996.15
2023-11-24T05:28:54.057Z,996.12
2023-11-24T05:29:58.282Z,996.09
2023-11-24T05:31:02.493Z,996.06
2023-11-24T05:32:06.646Z,996.05
2023-11-24T05:33:10.981Z,996.02
2023-11-24T05:34:15.100Z,995.99
2023-11-24T05:35:19.469Z,995.97
2023-11-24T05:36:23.836Z,995.93
2023-11-24T05:37:28.093Z,995.88
2023-11-24T05:38:32.223Z,995.87
2023-11-24T05:39:36.538Z,995.82
2023-11-24T05:40:43.676Z,995.74
2023-11-24T05:41:47.048Z,995.79
2023-11-24T05:42:52.223Z,995.73
2023-11-24T05:43:55.651Z,995.73
2023-11-24T05:44:59.845Z,995.69
2023-11-24T05:46:04.158Z,995.74
2023-11-24T05:47:08.307Z,995.75
2023-11-24T05:48:12.534Z,995.75
2023-11-24T05:49:16.811Z,995.75
2023-11-24T05:50:21.105Z,995.74
2023-11-24T05:51:25.204Z,995.72
2023-11-24T05:52:29.562Z,995.73
2023-11-24T05:53:33.757Z,995.73
2023-11-24T05:54:38.083Z,995.71
2023-11-24T05:55:42.301Z,995.76
2023-11-24T05:57:00.479Z,995.76
2023-11-24T05:58:03.582Z,995.74
2023-11-24T05:59:07.682Z,995.73
2023-11-24T06:00:11.932Z,995.74
2023-11-24T06:01:16.166Z,995.75
2023-11-24T06:02:20.461Z,995.74
2023-11-24T06:03:24.776Z,995.75
2023-11-24T06:04:29.028Z,995.82
2023-11-24T06:05:33.108Z,995.76
2023-11-24T06:06:37.426Z,995.76
2023-11-24T06:07:41.697Z,995.69
2023-11-24T06:08:45.954Z,995.67
2023-11-24T06:09:50.269Z,995.68
2023-11-24T06:10:54.481Z,995.64
2023-11-24T06:11:58.746Z,995.68
2023-11-24T06:13:03.108Z,995.65
2023-11-24T06:14:07.355Z,995.60
2023-11-24T06:15:11.512Z,995.58
2023-11-24T06:16:15.861Z,995.57
2023-11-24T06:17:19.953Z,995.51
2023-11-24T06:18:24.277Z,995.51
2023-11-24T06:19:28.563Z,995.53
2023-11-24T06:20:32.797Z,995.53
2023-11-24T06:21:37.169Z,995.52
2023-11-24T06:22:41.380Z,995.49
2023-11-24T06:23:45.566Z,995.55
2023-11-24T06:24:49.782Z,995.53
2023-11-24T06:25:53.936Z,995.51
2023-11-24T06:27:01.213Z,995.53
2023-11-24T06:28:18.547Z,995.48
2023-11-24T06:29:21.797Z,995.49
2023-11-24T06:30:26.084Z,995.53
2023-11-24T06:31:30.275Z,995.54
2023-11-24T06:32:34.574Z,995.55
2023-11-24T06:33:38.786Z,995.51
2023-11-24T06:34:43.098Z,995.53
2023-11-24T06:35:47.135Z,995.54
2023-11-24T06:36:51.498Z,995.54
2023-11-24T06:37:55.522Z,995.59
2023-11-24T06:38:59.800Z,995.60
2023-11-24T06:40:04.303Z,995.60
2023-11-24T06:41:08.325Z,995.61
2023-11-24T06:42:12.601Z,995.61
2023-11-24T06:43:16.896Z,995.58
2023-11-24T06:44:21.100Z,995.55
2023-11-24T06:45:25.162Z,995.50
2023-11-24T06:46:29.538Z,995.47
2023-11-24T06:47:33.820Z,995.48
2023-11-24T06:48:38.153Z,995.48
2023-11-24T06:49:42.339Z,995.49
2023-11-24T06:50:46.468Z,995.50
2023-11-24T06:51:50.771Z,995.52
2023-11-24T06:52:54.946Z,995.53
2023-11-24T06:53:59.240Z,995.53
2023-11-24T06:55:03.585Z,995.54
2023-11-24T06:56:07.683Z,995.52
2023-11-24T06:57:17.913Z,995.55
2023-11-24T06:58:20.799Z,995.51
2023-11-24T06:59:25.045Z,995.49
2023-11-24T07:00:29.288Z,995.51
2023-11-24T07:01:34.197Z,995.55
2023-11-24T07:02:37.900Z,995.54
2023-11-24T07:03:42.138Z,995.66
2023-11-24T07:04:46.301Z,995.64
2023-11-24T07:05:50.524Z,995.66
2023-11-24T07:06:54.730Z,995.67
2023-11-24T07:07:59.041Z,995.62
2023-11-24T07:09:03.305Z,995.65
2023-11-24T07:10:07.689Z,995.63
2023-11-24T07:11:11.862Z,995.58
2023-11-24T07:12:16.201Z,995.60
2023-11-24T07:13:20.451Z,995.57
2023-11-24T07:14:24.679Z,995.59
2023-11-24T07:15:28.895Z,995.59
2023-11-24T07:16:33.208Z,995.61
2023-11-24T07:17:37.391Z,995.59
2023-11-24T07:18:41.819Z,995.62
2023-11-24T07:19:46.711Z,995.74
2023-11-24T07:20:50.724Z,995.71
2023-11-24T07:21:54.788Z,995.72
2023-11-24T07:22:59.094Z,995.76
2023-11-24T07:24:03.383Z,995.69
2023-11-24T07:25:07.668Z,995.71
2023-11-24T07:26:11.879Z,995.69
2023-11-24T07:27:32.417Z,995.64
2023-11-24T07:28:33.235Z,995.57
2023-11-24T07:29:37.317Z,995.55
2023-11-24T07:30:41.705Z,995.52
2023-11-24T07:31:59.951Z,995.53
2023-11-24T07:33:03.261Z,995.55
2023-11-24T07:34:07.500Z,995.57
2023-11-24T07:35:11.952Z,995.52
2023-11-24T07:36:15.853Z,995.55
2023-11-24T07:37:20.054Z,995.51
2023-11-24T07:38:24.308Z,995.51
2023-11-24T07:39:28.544Z,995.52
2023-11-24T07:40:32.843Z,995.51
2023-11-24T07:41:37.110Z,995.51
2023-11-24T07:42:41.473Z,995.50
2023-11-24T07:43:45.688Z,995.48
2023-11-24T07:44:49.846Z,995.51
2023-11-24T07:45:54.245Z,995.53
2023-11-24T07:46:58.393Z,995.55
2023-11-24T07:48:02.617Z,995.57
2023-11-24T07:49:06.907Z,995.58
2023-11-24T07:50:11.286Z,995.61
2023-11-24T07:51:15.323Z,995.56
2023-11-24T07:52:19.667Z,995.55
2023-11-24T07:53:23.934Z,995.48
2023-11-24T07:54:42.175Z,995.43
2023-11-24T07:55:45.071Z,995.39
2023-11-24T07:56:49.395Z,995.39
2023-11-24T07:57:53.605Z,995.39
2023-11-24T07:58:57.809Z,995.36
2023-11-24T08:00:02.129Z,995.36
2023-11-24T08:01:08.777Z,995.34
2023-11-24T08:02:10.764Z,995.38
2023-11-24T08:03:14.815Z,995.40
2023-11-24T08:04:19.202Z,995.40
2023-11-24T08:05:23.254Z,995.37
2023-11-24T08:06:27.580Z,995.28
2023-11-24T08:07:31.980Z,995.29
2023-11-24T08:08:36.278Z,995.29
2023-11-24T08:09:40.618Z,995.29
2023-11-24T08:10:44.713Z,995.26
2023-11-24T08:11:48.957Z,995.27
2023-11-24T08:12:53.425Z,995.29
2023-11-24T08:13:57.530Z,995.29
2023-11-24T08:15:01.892Z,995.25
2023-11-24T08:16:06.212Z,995.21
2023-11-24T08:17:10.408Z,995.18
2023-11-24T08:18:14.701Z,995.13
2023-11-24T08:19:18.946Z,995.14
2023-11-24T08:20:37.154Z,995.13
2023-11-24T08:21:40.314Z,995.20
2023-11-24T08:22:44.387Z,995.19
2023-11-24T08:23:48.624Z,995.21
2023-11-24T08:24:52.860Z,995.18
2023-11-24T08:25:57.094Z,995.16
2023-11-24T08:27:01.273Z,995.15
2023-11-24T08:28:05.851Z,995.18
2023-11-24T08:29:09.869Z,995.15
2023-11-24T08:30:14.100Z,995.14
2023-11-24T08:31:18.233Z,995.10
2023-11-24T08:32:22.644Z,995.14
2023-11-24T08:33:26.981Z,995.18
2023-11-24T08:34:32.232Z,995.16
2023-11-24T08:35:35.977Z,995.21
2023-11-24T08:36:40.401Z,995.21
2023-11-24T08:37:44.523Z,995.19
2023-11-24T08:38:48.715Z,995.22
2023-11-24T08:39:56.042Z,995.20
2023-11-24T08:40:59.349Z,995.22
2023-11-24T08:42:03.633Z,995.18
2023-11-24T08:43:08.038Z,995.17
2023-11-24T08:44:12.180Z,995.18
2023-11-24T08:45:16.577Z,995.16
2023-11-24T08:46:20.955Z,995.16
2023-11-24T08:47:25.102Z,995.12
2023-11-24T08:48:29.342Z,995.12
2023-11-24T08:49:33.681Z,995.11
2023-11-24T08:50:37.970Z,995.12
2023-11-24T08:51:42.105Z,995.15
2023-11-24T08:52:46.371Z,995.07
2023-11-24T08:53:50.683Z,995.06
2023-11-24T08:54:54.858Z,995.12
2023-11-24T08:55:59.318Z,995.12
2023-11-24T08:57:03.346Z,995.13
2023-11-24T08:58:07.705Z,995.11
2023-11-24T08:59:11.965Z,995.14
2023-11-24T09:00:16.241Z,995.14
2023-11-24T09:01:20.601Z,995.08
2023-11-24T09:02:24.784Z,995.10
2023-11-24T09:03:29.022Z,995.07
2023-11-24T09:04:33.370Z,995.02
2023-11-24T09:05:37.464Z,995.00
2023-11-24T09:06:41.960Z,994.96
2023-11-24T09:07:46.072Z,994.97
2023-11-24T09:08:50.304Z,994.89
2023-11-24T09:09:54.607Z,994.84
2023-11-24T09:10:58.720Z,994.79
2023-11-24T09:12:03.089Z,994.83
2023-11-24T09:13:07.358Z,994.84
2023-11-24T09:14:11.648Z,994.82
2023-11-24T09:15:15.818Z,994.80
2023-11-24T09:16:20.239Z,994.81
2023-11-24T09:17:24.335Z,994.83
2023-11-24T09:18:28.572Z,994.84
2023-11-24T09:19:32.710Z,994.86
2023-11-24T09:20:37.038Z,994.84
2023-11-24T09:21:41.328Z,994.85
2023-11-24T09:22:45.472Z,994.83
2023-11-24T09:23:49.732Z,994.86
2023-11-24T09:24:54.074Z,994.83
2023-11-24T09:25:58.185Z,994.87
2023-11-24T09:27:02.447Z,994.87
2023-11-24T09:28:06.786Z,994.87
2023-11-24T09:29:11.145Z,994.78
2023-11-24T09:30:15.364Z,994.78
2023-11-24T09:31:19.690Z,994.71
2023-11-24T09:32:23.648Z,994.71
2023-11-24T09:33:27.941Z,994.71
2023-11-24T09:34:32.336Z,994.68
2023-11-24T09:35:36.545Z,994.63
2023-11-24T09:36:40.703Z,994.63
2023-11-24T09:37:45.015Z,994.60
2023-11-24T09:38:49.250Z,994.59
2023-11-24T09:39:53.454Z,994.57
2023-11-24T09:40:57.737Z,994.51
2023-11-24T09:42:01.815Z,994.41
2023-11-24T09:43:06.336Z,994.43
2023-11-24T09:44:10.479Z,994.37
2023-11-24T09:45:14.667Z,994.33
2023-11-24T09:46:22.103Z,994.29
2023-11-24T09:47:25.262Z,994.29
2023-11-24T09:48:29.545Z,994.29
2023-11-24T09:49:33.834Z,994.26
2023-11-24T09:50:38.043Z,994.19
2023-11-24T09:51:42.272Z,994.11
2023-11-24T09:52:46.531Z,994.06
2023-11-24T09:53:50.802Z,994.00
2023-11-24T09:54:55.040Z,994.03
2023-11-24T09:55:59.288Z,994.00
2023-11-24T09:57:03.472Z,993.97
2023-11-24T09:58:07.812Z,993.94
2023-11-24T09:59:11.953Z,993.96
2023-11-24T10:00:16.255Z,993.92
2023-11-24T10:01:20.480Z,993.90
2023-11-24T10:02:24.798Z,993.93
2023-11-24T10:03:29.038Z,993.89
2023-11-24T10:04:33.302Z,993.87
2023-11-24T10:05:37.416Z,993.87
2023-11-24T10:06:41.753Z,993.84
2023-11-24T10:07:45.976Z,993.84
2023-11-24T10:08:50.257Z,993.79
2023-11-24T10:09:54.482Z,993.81
2023-11-24T10:10:58.736Z,993.78
2023-11-24T10:12:02.981Z,993.74
2023-11-24T10:13:07.290Z,993.71
2023-11-24T10:14:11.478Z,993.69
2023-11-24T10:15:15.892Z,993.61
2023-11-24T10:16:20.140Z,993.58
2023-11-24T10:17:24.420Z,993.57
2023-11-24T10:18:28.512Z,993.54
2023-11-24T10:19:32.842Z,993.45
2023-11-24T10:20:37.071Z,993.43
2023-11-24T10:21:41.377Z,993.39
2023-11-24T10:22:45.498Z,993.39
2023-11-24T10:23:49.857Z,993.31
2023-11-24T10:24:54.135Z,993.30
2023-11-24T10:25:58.356Z,993.27
2023-11-24T10:27:02.747Z,993.22
2023-11-24T10:28:07.073Z,993.18
2023-11-24T10:29:11.230Z,993.12
2023-11-24T10:30:15.422Z,993.05
2023-11-24T10:31:19.842Z,993.04
2023-11-24T10:32:24.084Z,992.99
2023-11-24T10:33:35.279Z,992.95
2023-11-24T10:34:32.681Z,992.90
2023-11-24T10:35:36.798Z,992.89
2023-11-24T10:36:41.196Z,992.90
2023-11-24T10:37:45.376Z,992.90
2023-11-24T10:38:49.652Z,992.86
2023-11-24T10:39:54.028Z,992.87
2023-11-24T10:40:59.209Z,992.80
2023-11-24T10:42:02.457Z,992.77
2023-11-24T10:43:06.730Z,992.73
2023-11-24T10:44:10.913Z,992.72
2023-11-24T10:45:15.199Z,992.74
2023-11-24T10:46:19.544Z,992.71
2023-11-24T10:47:23.784Z,992.66
2023-11-24T10:48:27.945Z,992.70
2023-11-24T10:49:32.267Z,992.72
2023-11-24T10:50:36.529Z,992.70
2023-11-24T10:51:40.774Z,992.70
2023-11-24T10:52:45.056Z,992.72
2023-11-24T10:53:49.212Z,992.73
2023-11-24T10:54:53.538Z,992.71
2023-11-24T10:55:57.870Z,992.64
2023-11-24T10:57:02.111Z,992.61
2023-11-24T10:58:06.360Z,992.56
2023-11-24T10:59:10.590Z,992.56
2023-11-24T11:00:14.865Z,992.55
2023-11-24T11:01:19.225Z,992.53
2023-11-24T11:02:23.541Z,992.56
2023-11-24T11:03:27.676Z,992.49
2023-11-24T11:04:31.791Z,992.56
2023-11-24T11:05:36.003Z,992.61
2023-11-24T11:06:40.246Z,992.56
2023-11-24T11:07:44.574Z,992.56
2023-11-24T11:08:48.796Z,992.54
2023-11-24T11:09:53.049Z,992.43
2023-11-24T11:10:57.196Z,992.50
2023-11-24T11:12:01.502Z,992.54
2023-11-24T11:13:05.788Z,992.56
2023-11-24T11:14:09.974Z,992.58
2023-11-24T11:15:14.321Z,992.59
2023-11-24T11:16:18.586Z,992.60
2023-11-24T11:17:22.787Z,992.63
2023-11-24T11:18:27.085Z,992.60
2023-11-24T11:19:31.393Z,992.56
2023-11-24T11:20:35.690Z,992.56
2023-11-24T11:21:40.012Z,992.57
2023-11-24T11:22:44.230Z,992.59
2023-11-24T11:23:48.605Z,992.62
2023-11-24T11:24:52.872Z,992.63
2023-11-24T11:25:57.014Z,992.67
2023-11-24T11:27:01.431Z,992.66
2023-11-24T11:28:05.790Z,992.63
2023-11-24T11:29:09.953Z,992.61
2023-11-24T11:30:14.138Z,992.63
2023-11-24T11:31:18.473Z,992.60
2023-11-24T11:32:24.273Z,992.59
2023-11-24T11:33:27.024Z,992.55
2023-11-24T11:34:31.898Z,992.51
2023-11-24T11:35:49.530Z,992.46
2023-11-24T11:36:52.747Z,992.47
2023-11-24T11:37:56.871Z,992.44
2023-11-24T11:39:01.126Z,992.42
2023-11-24T11:40:05.441Z,992.37
2023-11-24T11:41:09.673Z,992.39
2023-11-24T11:42:14.052Z,992.33
2023-11-24T11:43:18.307Z,992.36
2023-11-24T11:44:25.114Z,992.32
2023-11-24T11:45:26.728Z,992.31
2023-11-24T11:46:31.105Z,992.32
2023-11-24T11:47:35.292Z,992.38
2023-11-24T11:48:42.464Z,992.35
2023-11-24T11:49:45.922Z,992.39
2023-11-24T11:50:50.207Z,992.37
2023-11-24T11:51:54.552Z,992.40
2023-11-24T11:52:58.838Z,992.40
2023-11-24T11:54:02.963Z,992.32
2023-11-24T11:55:07.299Z,992.31
2023-11-24T11:56:11.486Z,992.37
2023-11-24T11:57:15.832Z,992.35
2023-11-24T11:58:20.042Z,992.32
2023-11-24T11:59:27.380Z,992.32
2023-11-24T12:00:30.710Z,992.26
2023-11-24T12:01:35.169Z,992.26
2023-11-24T12:02:39.431Z,992.24
2023-11-24T12:03:43.486Z,992.19
2023-11-24T12:04:47.797Z,992.08
2023-11-24T12:05:52.054Z,992.12
2023-11-24T12:06:56.335Z,992.11
2023-11-24T12:08:00.531Z,992.11
2023-11-24T12:09:04.848Z,992.05
2023-11-24T12:10:09.205Z,992.02
2023-11-24T12:11:13.306Z,992.02
2023-11-24T12:12:17.657Z,992.06
2023-11-24T12:13:21.957Z,991.99
2023-11-24T12:14:26.081Z,992.01
2023-11-24T12:15:30.388Z,991.99
2023-11-24T12:16:34.809Z,992.00
2023-11-24T12:17:38.821Z,991.96
2023-11-24T12:18:43.085Z,991.85
2023-11-24T12:19:47.366Z,991.88
2023-11-24T12:20:51.601Z,991.87
2023-11-24T12:21:55.837Z,991.85
2023-11-24T12:23:00.383Z,991.78
2023-11-24T12:24:14.908Z,991.81
2023-11-24T12:25:08.533Z,991.78
2023-11-24T12:26:12.796Z,991.76
2023-11-24T12:27:16.959Z,991.74
2023-11-24T12:28:21.344Z,991.74
2023-11-24T12:29:25.517Z,991.73
2023-11-24T12:30:29.816Z,991.67
2023-11-24T12:31:34.124Z,991.67
2023-11-24T12:32:38.328Z,991.58
2023-11-24T12:33:42.595Z,991.57
2023-11-24T12:34:46.962Z,991.54
2023-11-24T12:35:51.127Z,991.55
2023-11-24T12:36:55.479Z,991.47
2023-11-24T12:37:59.599Z,991.40
2023-11-24T12:39:03.964Z,991.36
2023-11-24T12:40:08.206Z,991.36
2023-11-24T12:41:12.444Z,991.27
2023-11-24T12:42:16.697Z,991.16
2023-11-24T12:43:35.007Z,991.10
2023-11-24T12:44:38.195Z,991.06
2023-11-24T12:45:42.489Z,991.07
2023-11-24T12:46:46.621Z,991.04
2023-11-24T12:47:50.819Z,990.94
2023-11-24T12:48:55.041Z,990.99
2023-11-24T12:49:59.334Z,990.98
2023-11-24T12:51:03.720Z,990.99
2023-11-24T12:52:07.960Z,990.98
2023-11-24T12:53:12.280Z,990.96
2023-11-24T12:54:16.550Z,990.95
2023-11-24T12:55:20.794Z,990.91
2023-11-24T12:56:25.021Z,990.89
2023-11-24T12:57:29.402Z,990.93
2023-11-24T12:58:33.593Z,990.89
2023-11-24T12:59:37.863Z,990.88
2023-11-24T13:00:48.215Z,990.96
2023-11-24T13:01:51.009Z,990.91
2023-11-24T13:02:55.295Z,990.93
2023-11-24T13:03:59.526Z,990.94
2023-11-24T13:05:03.787Z,990.93
2023-11-24T13:06:10.946Z,990.98
2023-11-24T13:07:14.541Z,990.98
2023-11-24T13:08:18.646Z,990.93
2023-11-24T13:09:22.953Z,990.97
2023-11-24T13:10:27.221Z,990.99
2023-11-24T13:11:31.342Z,990.97
2023-11-24T13:12:35.765Z,990.95
2023-11-24T13:13:39.986Z,990.93
2023-11-24T13:14:44.281Z,990.91
2023-11-24T13:15:48.623Z,990.95
2023-11-24T13:16:52.944Z,990.89
2023-11-24T13:17:57.424Z,990.93
2023-11-24T13:19:01.473Z,990.89
2023-11-24T13:20:05.726Z,990.94
2023-11-24T13:21:10.000Z,990.96
2023-11-24T13:22:14.242Z,990.96
2023-11-24T13:23:18.490Z,990.93
2023-11-24T13:24:22.796Z,990.92